Terminal Aerodrome Forecast
Issued by NWS Buffalo, NY

Home | Current Version | Previous Version | Text Only | Print | Product List | Glossary On
Versions: 1 2 3 4 5 6 7 8 9 10 11 12 13 14 15 16 17 18 19 20 21 22 23 24 25
000
FTUS41 KBUF 301500 AAA
TAFROC
TAF AMD
KROC 301504Z 3015/0112 00000KT P6SM FEW180 SCT250
     FM301700 05005KT P6SM FEW040 SCT250
     FM010100 04004KT P6SM SCT060 BKN110
     FM010400 VRB03KT 4SM BR BKN012 BKN060
     FM010900 04004KT 3SM BR BKN009 OVC100=

USA.gov is the U.S. government's official web portal to all federal, state and local government web resources and services.